ADDS TAF Data INFO
IDs: Format: Raw Decoded Include METARs

Data at: 1712 UTC 23 Jul 2018

KCVS 231658Z AUTO 05014KT 10SM CLR 30/15 A3025 RMK AO2 SLP176 T03010154 $

TAF KCVS 231012Z 2310/2416 04012G18KT 9999 FEW120 SCT200 QNH3006INS
  BECMG 2315/2316 04012KT 9999 FEW120 SCT200 QNH3015INS
  BECMG 2318/2319 09012KT 9999 FEW120 QNH3009INS
  BECMG 2322/2323 10015KT 9999 BKN080 QNH3009INS
  BECMG 2407/2408 29015G25KT 9000 -SHRA VCTS BKN120CB QNH3023INS
  TEMPO 2408/2410 -TSRA
  BECMG 2414/2415 10015KT 9999 NSW BKN060 QNH3023INS TX34/2323Z TN19/2312Z